sensor_id;sensor_type;location;lat;lon;timestamp;pressure;altitude;pressure_sealevel;temperature;humidity
19811;BME280;10065;49.632;8.346;2023-08-30T06:07:18;99837.94;;;17.53;87.38
19811;BME280;10065;49.632;8.346;2023-08-30T06:09:46;99834.84;;;17.56;86.75
19811;BME280;10065;49.632;8.346;2023-08-30T06:12:14;99842.69;;;17.58;87.11
19811;BME280;10065;49.632;8.346;2023-08-30T06:14:43;99843.94;;;17.62;86.37
19811;BME280;10065;49.632;8.346;2023-08-30T06:17:16;99848.44;;;17.68;86.42
19811;BME280;10065;49.632;8.346;2023-08-30T06:19:45;99848.00;;;17.78;85.79
19811;BME280;10065;49.632;8.346;2023-08-30T06:22:14;99848.22;;;17.83;85.69
19811;BME280;10065;49.632;8.346;2023-08-30T06:24:44;99851.50;;;17.91;85.21
19811;BME280;10065;49.632;8.346;2023-08-30T06:27:13;99845.72;;;18.01;84.42
19811;BME280;10065;49.632;8.346;2023-08-30T06:29:44;99850.00;;;18.09;83.79
19811;BME280;10065;49.632;8.346;2023-08-30T06:32:12;99853.69;;;18.14;83.70
19811;BME280;10065;49.632;8.346;2023-08-30T06:34:41;99848.13;;;18.16;83.62
19811;BME280;10065;49.632;8.346;2023-08-30T06:37:11;99845.63;;;18.14;82.86
19811;BME280;10065;49.632;8.346;2023-08-30T06:39:39;99842.56;;;18.11;83.71
19811;BME280;10065;49.632;8.346;2023-08-30T06:42:09;99836.53;;;18.22;82.52
19811;BME280;10065;49.632;8.346;2023-08-30T06:44:38;99843.75;;;18.21;83.20
19811;BME280;10065;49.632;8.346;2023-08-30T06:47:07;99842.34;;;18.12;83.30
19811;BME280;10065;49.632;8.346;2023-08-30T06:49:35;99841.94;;;18.15;83.47
19811;BME280;10065;49.632;8.346;2023-08-30T06:52:06;99839.81;;;18.24;83.16
19811;BME280;10065;49.632;8.346;2023-08-30T06:54:43;99836.16;;;18.18;82.71
19811;BME280;10065;49.632;8.346;2023-08-30T06:57:12;99836.81;;;18.07;83.58
19811;BME280;10065;49.632;8.346;2023-08-30T06:59:40;99840.94;;;18.03;83.89
19811;BME280;10065;49.632;8.346;2023-08-30T07:02:08;99834.13;;;18.07;84.02
19811;BME280;10065;49.632;8.346;2023-08-30T07:04:36;99829.56;;;18.08;83.72
19811;BME280;10065;49.632;8.346;2023-08-30T07:07:04;99836.97;;;18.19;83.40
19811;BME280;10065;49.632;8.346;2023-08-30T07:09:32;99832.44;;;18.19;82.72
19811;BME280;10065;49.632;8.346;2023-08-30T07:12:03;99830.94;;;18.23;82.85
19811;BME280;10065;49.632;8.346;2023-08-30T07:14:35;99827.19;;;18.31;83.09
19811;BME280;10065;49.632;8.346;2023-08-30T07:17:03;99827.41;;;18.36;82.72
19811;BME280;10065;49.632;8.346;2023-08-30T07:19:33;99825.72;;;18.41;82.68
19811;BME280;10065;49.632;8.346;2023-08-30T07:22:01;99821.13;;;18.49;82.35
19811;BME280;10065;49.632;8.346;2023-08-30T07:24:29;99818.44;;;18.49;81.24
19811;BME280;10065;49.632;8.346;2023-08-30T07:26:57;99819.66;;;18.53;80.83
19811;BME280;10065;49.632;8.346;2023-08-30T07:29:25;99820.91;;;18.57;79.93
19811;BME280;10065;49.632;8.346;2023-08-30T07:31:54;99814.69;;;18.63;79.76
19811;BME280;10065;49.632;8.346;2023-08-30T07:34:23;99814.78;;;18.74;79.67
19811;BME280;10065;49.632;8.346;2023-08-30T07:36:53;99817.19;;;18.89;78.94
19811;BME280;10065;49.632;8.346;2023-08-30T07:39:21;99823.34;;;18.96;78.51
19811;BME280;10065;49.632;8.346;2023-08-30T07:41:53;99825.31;;;19.07;78.05
19811;BME280;10065;49.632;8.346;2023-08-30T07:44:22;99821.91;;;19.18;77.67
19811;BME280;10065;49.632;8.346;2023-08-30T07:46:50;99829.13;;;19.25;76.88
19811;BME280;10065;49.632;8.346;2023-08-30T07:49:19;99821.06;;;19.25;76.28
19811;BME280;10065;49.632;8.346;2023-08-30T07:51:47;99831.81;;;19.25;75.01
19811;BME280;10065;49.632;8.346;2023-08-30T07:54:16;99831.19;;;19.23;75.25
19811;BME280;10065;49.632;8.346;2023-08-30T07:56:44;99829.25;;;19.30;75.36
19811;BME280;10065;49.632;8.346;2023-08-30T07:59:21;99827.34;;;19.37;74.24
19811;BME280;10065;49.632;8.346;2023-08-30T08:01:48;99832.03;;;19.48;74.73
19811;BME280;10065;49.632;8.346;2023-08-30T08:04:19;99833.38;;;19.57;74.32
19811;BME280;10065;49.632;8.346;2023-08-30T08:06:48;99833.91;;;19.66;73.42
19811;BME280;10065;49.632;8.346;2023-08-30T08:09:22;99833.25;;;19.70;73.48
19811;BME280;10065;49.632;8.346;2023-08-30T08:11:50;99834.16;;;19.82;73.16
19811;BME280;10065;49.632;8.346;2023-08-30T08:14:18;99834.91;;;19.89;72.87
19811;BME280;10065;49.632;8.346;2023-08-30T08:16:46;99835.91;;;19.95;72.71
19811;BME280;10065;49.632;8.346;2023-08-30T08:19:14;99837.00;;;20.06;71.45
19811;BME280;10065;49.632;8.346;2023-08-30T08:21:44;99838.94;;;20.17;71.18
19811;BME280;10065;49.632;8.346;2023-08-30T08:24:11;99839.00;;;20.28;70.52
19811;BME280;10065;49.632;8.346;2023-08-30T08:26:39;99840.00;;;20.34;70.26
19811;BME280;10065;49.632;8.346;2023-08-30T08:29:07;99843.13;;;20.31;69.72
19811;BME280;10065;49.632;8.346;2023-08-30T08:31:35;99835.50;;;20.28;69.98
19811;BME280;10065;49.632;8.346;2023-08-30T08:34:08;99847.69;;;20.31;69.65
19811;BME280;10065;49.632;8.346;2023-08-30T08:36:37;99836.75;;;20.25;68.98
19811;BME280;10065;49.632;8.346;2023-08-30T08:39:07;99844.16;;;20.30;68.56
19811;BME280;10065;49.632;8.346;2023-08-30T08:41:40;99837.88;;;20.18;68.44
19811;BME280;10065;49.632;8.346;2023-08-30T08:44:09;99845.44;;;20.09;69.08
19811;BME280;10065;49.632;8.346;2023-08-30T08:46:39;99838.81;;;20.12;69.69
19811;BME280;10065;49.632;8.346;2023-08-30T08:49:09;99836.25;;;20.17;69.30
19811;BME280;10065;49.632;8.346;2023-08-30T08:51:38;99836.16;;;20.23;69.49
19811;BME280;10065;49.632;8.346;2023-08-30T08:54:07;99836.16;;;20.23;68.87
19811;BME280;10065;49.632;8.346;2023-08-30T08:56:37;99845.56;;;20.33;68.68
19811;BME280;10065;49.632;8.346;2023-08-30T08:59:05;99848.44;;;20.38;68.56
19811;BME280;10065;49.632;8.346;2023-08-30T09:01:46;99847.91;;;20.47;67.79
19811;BME280;10065;49.632;8.346;2023-08-30T09:04:15;99843.97;;;20.61;67.63
19811;BME280;10065;49.632;8.346;2023-08-30T09:06:48;99849.53;;;20.67;67.89
19811;BME280;10065;49.632;8.346;2023-08-30T09:09:24;99843.59;;;20.88;67.37
19811;BME280;10065;49.632;8.346;2023-08-30T09:11:52;99843.88;;;20.98;66.50
19811;BME280;10065;49.632;8.346;2023-08-30T09:14:20;99842.03;;;21.10;65.99
19811;BME280;10065;49.632;8.346;2023-08-30T09:16:55;99849.13;;;21.34;65.72
19811;BME280;10065;49.632;8.346;2023-08-30T09:19:23;99832.25;;;21.51;64.58
19811;BME280;10065;49.632;8.346;2023-08-30T09:21:56;99837.97;;;21.66;63.90
19811;BME280;10065;49.632;8.346;2023-08-30T09:24:26;99835.38;;;21.94;62.89
19811;BME280;10065;49.632;8.346;2023-08-30T09:26:55;99836.53;;;22.10;62.76
19811;BME280;10065;49.632;8.346;2023-08-30T09:29:26;99834.19;;;22.13;61.86
19811;BME280;10065;49.632;8.346;2023-08-30T09:31:55;99834.03;;;22.32;61.20
19811;BME280;10065;49.632;8.346;2023-08-30T09:34:26;99824.41;;;22.52;60.43
19811;BME280;10065;49.632;8.346;2023-08-30T09:37:21;99821.75;;;22.69;59.47
19811;BME280;10065;49.632;8.346;2023-08-30T09:39:51;99807.75;;;22.72;58.28
19811;BME280;10065;49.632;8.346;2023-08-30T09:42:19;99811.66;;;22.76;58.05
19811;BME280;10065;49.632;8.346;2023-08-30T09:44:51;99811.91;;;22.75;57.37
19811;BME280;10065;49.632;8.346;2023-08-30T09:47:19;99810.66;;;22.54;57.77
19811;BME280;10065;49.632;8.346;2023-08-30T09:49:48;99806.50;;;22.35;58.78
19811;BME280;10065;49.632;8.346;2023-08-30T09:52:18;99797.66;;;22.23;57.91
19811;BME280;10065;49.632;8.346;2023-08-30T09:58:09;99794.09;;;22.34;59.09
19811;BME280;10065;49.632;8.346;2023-08-30T10:00:40;99795.13;;;22.61;58.42
19811;BME280;10065;49.632;8.346;2023-08-30T10:03:10;99789.53;;;22.79;57.94
19811;BME280;10065;49.632;8.346;2023-08-30T10:05:56;99788.56;;;22.57;56.66
19811;BME280;10065;49.632;8.346;2023-08-30T10:08:29;99782.72;;;22.32;57.67
19811;BME280;10065;49.632;8.346;2023-08-30T10:10:58;99780.28;;;22.19;58.51
19811;BME280;10065;49.632;8.346;2023-08-30T10:13:30;99772.50;;;22.34;58.46
19811;BME280;10065;49.632;8.346;2023-08-30T10:16:04;99773.59;;;23.67;52.28
19811;BME280;10065;49.632;8.346;2023-08-30T10:18:38;99769.00;;;24.32;49.24
19811;BME280;10065;49.632;8.346;2023-08-30T10:21:26;99764.91;;;24.30;48.51
19811;BME280;10065;49.632;8.346;2023-08-30T10:23:59;99766.56;;;24.09;47.80
19811;BME280;10065;49.632;8.346;2023-08-30T10:26:50;99764.19;;;23.52;49.39
19811;BME280;10065;49.632;8.346;2023-08-30T10:29:21;99756.03;;;23.31;49.10
19811;BME280;10065;49.632;8.346;2023-08-30T10:31:50;99761.19;;;22.99;50.04
19811;BME280;10065;49.632;8.346;2023-08-30T10:34:18;99754.41;;;22.79;49.90
19811;BME280;10065;49.632;8.346;2023-08-30T10:37:06;99758.44;;;22.48;53.03
19811;BME280;10065;49.632;8.346;2023-08-30T10:39:48;99764.47;;;22.39;51.24
19811;BME280;10065;49.632;8.346;2023-08-30T10:42:21;99762.38;;;22.29;52.87
19811;BME280;10065;49.632;8.346;2023-08-30T10:44:56;99752.66;;;22.28;52.20
19811;BME280;10065;49.632;8.346;2023-08-30T10:47:35;99744.00;;;22.43;50.96
19811;BME280;10065;49.632;8.346;2023-08-30T10:50:06;99743.25;;;22.31;51.01
19811;BME280;10065;49.632;8.346;2023-08-30T10:52:35;99747.41;;;22.22;51.87
19811;BME280;10065;49.632;8.346;2023-08-30T10:55:05;99752.81;;;22.22;52.75
19811;BME280;10065;49.632;8.346;2023-08-30T10:57:42;99745.28;;;22.24;52.31
19811;BME280;10065;49.632;8.346;2023-08-30T11:00:21;99741.34;;;22.14;53.47
19811;BME280;10065;49.632;8.346;2023-08-30T11:03:10;99735.34;;;22.12;53.03
19811;BME280;10065;49.632;8.346;2023-08-30T11:05:40;99740.06;;;22.05;52.87
19811;BME280;10065;49.632;8.346;2023-08-30T11:08:10;99734.00;;;21.98;53.09
19811;BME280;10065;49.632;8.346;2023-08-30T11:11:11;99728.91;;;21.90;54.22
19811;BME280;10065;49.632;8.346;2023-08-30T11:13:41;99730.94;;;21.83;53.57
19811;BME280;10065;49.632;8.346;2023-08-30T11:16:24;99729.34;;;21.70;54.55
19811;BME280;10065;49.632;8.346;2023-08-30T11:18:56;99729.97;;;21.61;54.04
19811;BME280;10065;49.632;8.346;2023-08-30T11:21:23;99723.13;;;21.70;53.03
19811;BME280;10065;49.632;8.346;2023-08-30T11:23:51;99730.41;;;21.58;53.62
19811;BME280;10065;49.632;8.346;2023-08-30T11:26:19;99713.19;;;21.47;54.53
19811;BME280;10065;49.632;8.346;2023-08-30T11:28:47;99713.91;;;21.43;53.74
19811;BME280;10065;49.632;8.346;2023-08-30T11:31:19;99708.56;;;22.39;52.96
19811;BME280;10065;49.632;8.346;2023-08-30T11:36:43;99703.44;;;23.43;48.14
19811;BME280;10065;49.632;8.346;2023-08-30T11:39:14;99700.47;;;23.06;48.81
19811;BME280;10065;49.632;8.346;2023-08-30T11:41:43;99702.31;;;22.84;49.24
19811;BME280;10065;49.632;8.346;2023-08-30T11:44:12;99701.69;;;22.48;49.63
19811;BME280;10065;49.632;8.346;2023-08-30T11:46:45;99707.09;;;22.32;50.04
19811;BME280;10065;49.632;8.346;2023-08-30T11:49:16;99700.91;;;22.20;49.71
19811;BME280;10065;49.632;8.346;2023-08-30T11:51:44;99710.81;;;22.14;49.59
19811;BME280;10065;49.632;8.346;2023-08-30T11:54:13;99704.78;;;22.24;49.66
19811;BME280;10065;49.632;8.346;2023-08-30T11:56:41;99704.72;;;22.52;48.54
19811;BME280;10065;49.632;8.346;2023-08-30T11:59:18;99700.72;;;22.55;48.46
19811;BME280;10065;49.632;8.346;2023-08-30T12:01:52;99697.84;;;22.61;48.62
19811;BME280;10065;49.632;8.346;2023-08-30T12:04:22;99697.69;;;24.00;46.65
19811;BME280;10065;49.632;8.346;2023-08-30T12:06:56;99683.81;;;25.19;43.56
19811;BME280;10065;49.632;8.346;2023-08-30T12:09:30;99692.63;;;24.99;42.89
19811;BME280;10065;49.632;8.346;2023-08-30T12:12:09;99694.16;;;24.90;42.57
19811;BME280;10065;49.632;8.346;2023-08-30T12:14:37;99679.59;;;24.96;41.30
19811;BME280;10065;49.632;8.346;2023-08-30T12:17:08;99691.84;;;24.72;41.31
19811;BME280;10065;49.632;8.346;2023-08-30T12:19:40;99687.94;;;24.04;43.34
19811;BME280;10065;49.632;8.346;2023-08-30T12:22:08;99691.31;;;23.68;44.64
19811;BME280;10065;49.632;8.346;2023-08-30T12:24:45;99684.84;;;23.47;45.21
19811;BME280;10065;49.632;8.346;2023-08-30T12:27:14;99681.59;;;23.28;46.40
19811;BME280;10065;49.632;8.346;2023-08-30T12:29:45;99679.81;;;23.17;47.28
19811;BME280;10065;49.632;8.346;2023-08-30T12:32:13;99672.72;;;23.11;47.35
19811;BME280;10065;49.632;8.346;2023-08-30T12:34:43;99665.88;;;23.25;46.58
19811;BME280;10065;49.632;8.346;2023-08-30T12:37:11;99668.28;;;23.43;45.84
19811;BME280;10065;49.632;8.346;2023-08-30T12:39:43;99662.84;;;23.43;45.37
19811;BME280;10065;49.632;8.346;2023-08-30T12:42:12;99661.19;;;23.81;44.49
19811;BME280;10065;49.632;8.346;2023-08-30T12:44:47;99669.41;;;24.18;43.52
19811;BME280;10065;49.632;8.346;2023-08-30T12:47:21;99671.13;;;24.02;43.91
19811;BME280;10065;49.632;8.346;2023-08-30T12:49:54;99666.84;;;23.79;44.54
19811;BME280;10065;49.632;8.346;2023-08-30T12:52:25;99668.47;;;23.58;44.88
19811;BME280;10065;49.632;8.346;2023-08-30T12:54:57;99659.56;;;23.41;45.45
19811;BME280;10065;49.632;8.346;2023-08-30T12:57:32;99665.66;;;23.32;45.74
19811;BME280;10065;49.632;8.346;2023-08-30T13:00:10;99657.69;;;23.20;45.34
19811;BME280;10065;49.632;8.346;2023-08-30T13:02:42;99655.16;;;23.13;45.18
19811;BME280;10065;49.632;8.346;2023-08-30T13:05:19;99651.06;;;23.11;45.75
19811;BME280;10065;49.632;8.346;2023-08-30T13:07:48;99659.44;;;23.09;45.58
19811;BME280;10065;49.632;8.346;2023-08-30T13:10:16;99653.25;;;23.14;45.20
19811;BME280;10065;49.632;8.346;2023-08-30T13:13:00;99661.31;;;23.09;45.13
19811;BME280;10065;49.632;8.346;2023-08-30T13:15:33;99649.09;;;23.06;44.92
19811;BME280;10065;49.632;8.346;2023-08-30T13:18:02;99646.91;;;23.03;44.28
19811;BME280;10065;49.632;8.346;2023-08-30T13:20:41;99639.34;;;23.05;44.35
19811;BME280;10065;49.632;8.346;2023-08-30T13:23:10;99638.28;;;23.06;43.66
19811;BME280;10065;49.632;8.346;2023-08-30T13:25:42;99645.34;;;23.07;42.91
19811;BME280;10065;49.632;8.346;2023-08-30T13:28:12;99641.81;;;23.07;41.41
19811;BME280;10065;49.632;8.346;2023-08-30T13:30:55;99653.78;;;23.11;41.93
19811;BME280;10065;49.632;8.346;2023-08-30T13:33:37;99639.69;;;23.09;43.01
19811;BME280;10065;49.632;8.346;2023-08-30T13:36:08;99636.41;;;23.07;43.18
19811;BME280;10065;49.632;8.346;2023-08-30T13:38:42;99631.53;;;23.04;43.72
19811;BME280;10065;49.632;8.346;2023-08-30T13:41:24;99630.38;;;23.00;43.83
19811;BME280;10065;49.632;8.346;2023-08-30T13:44:28;99624.97;;;23.00;44.03
19811;BME280;10065;49.632;8.346;2023-08-30T13:47:09;99628.25;;;23.02;43.52
19811;BME280;10065;49.632;8.346;2023-08-30T13:49:38;99632.50;;;22.98;43.86
19811;BME280;10065;49.632;8.346;2023-08-30T13:52:17;99628.25;;;23.02;43.03
19811;BME280;10065;49.632;8.346;2023-08-30T13:54:47;99628.72;;;22.99;43.55
19811;BME280;10065;49.632;8.346;2023-08-30T13:57:44;99638.41;;;22.95;44.30
19811;BME280;10065;49.632;8.346;2023-08-30T14:00:14;99631.38;;;22.94;44.35
19811;BME280;10065;49.632;8.346;2023-08-30T14:02:50;99640.03;;;22.96;44.27
19811;BME280;10065;49.632;8.346;2023-08-30T14:05:24;99634.91;;;22.94;44.28
19811;BME280;10065;49.632;8.346;2023-08-30T14:08:15;99627.47;;;22.84;43.95
19811;BME280;10065;49.632;8.346;2023-08-30T14:14:26;99628.56;;;22.72;44.38
19811;BME280;10065;49.632;8.346;2023-08-30T14:17:07;99624.16;;;22.66;44.99
19811;BME280;10065;49.632;8.346;2023-08-30T14:19:53;99624.47;;;22.69;44.51
19811;BME280;10065;49.632;8.346;2023-08-30T14:22:36;99631.84;;;22.91;44.81
19811;BME280;10065;49.632;8.346;2023-08-30T14:25:17;99628.56;;;22.88;45.13
19811;BME280;10065;49.632;8.346;2023-08-30T14:28:09;99623.13;;;22.83;45.21
19811;BME280;10065;49.632;8.346;2023-08-30T14:30:39;99620.91;;;22.80;45.15
19811;BME280;10065;49.632;8.346;2023-08-30T14:33:17;99621.13;;;22.79;45.20
19811;BME280;10065;49.632;8.346;2023-08-30T14:36:05;99621.41;;;22.77;45.38
19811;BME280;10065;49.632;8.346;2023-08-30T14:38:40;99626.81;;;22.77;45.26
19811;BME280;10065;49.632;8.346;2023-08-30T14:41:13;99629.53;;;22.77;45.81
19811;BME280;10065;49.632;8.346;2023-08-30T14:43:50;99623.16;;;22.72;45.04
19811;BME280;10065;49.632;8.346;2023-08-30T14:46:26;99623.94;;;22.67;45.24
19811;BME280;10065;49.632;8.346;2023-08-30T14:49:37;99624.22;;;22.71;45.65
19811;BME280;10065;49.632;8.346;2023-08-30T14:55:58;99632.72;;;22.74;45.99
19811;BME280;10065;49.632;8.346;2023-08-30T14:59:37;99618.28;;;22.69;45.35
19811;BME280;10065;49.632;8.346;2023-08-30T15:02:08;99622.28;;;22.66;45.62
19811;BME280;10065;49.632;8.346;2023-08-30T15:04:42;99612.88;;;22.69;46.03
19811;BME280;10065;49.632;8.346;2023-08-30T15:07:55;99621.22;;;22.67;46.67
19811;BME280;10065;49.632;8.346;2023-08-30T15:11:11;99620.06;;;22.63;46.04
19811;BME280;10065;49.632;8.346;2023-08-30T15:13:45;99626.22;;;22.59;44.84
19811;BME280;10065;49.632;8.346;2023-08-30T15:16:22;99617.78;;;22.55;45.18
19811;BME280;10065;49.632;8.346;2023-08-30T15:18:51;99623.66;;;22.52;45.26
19811;BME280;10065;49.632;8.346;2023-08-30T15:21:58;99622.38;;;22.55;44.80
19811;BME280;10065;49.632;8.346;2023-08-30T15:24:35;99615.50;;;22.47;44.58
19811;BME280;10065;49.632;8.346;2023-08-30T15:27:05;99616.31;;;22.47;43.46
19811;BME280;10065;49.632;8.346;2023-08-30T15:30:01;99608.22;;;22.47;43.26
19811;BME280;10065;49.632;8.346;2023-08-30T15:32:44;99616.66;;;22.51;43.85
19811;BME280;10065;49.632;8.346;2023-08-30T15:35:18;99610.75;;;22.54;43.66
19811;BME280;10065;49.632;8.346;2023-08-30T15:37:49;99608.56;;;22.51;44.19
19811;BME280;10065;49.632;8.346;2023-08-30T15:40:17;99615.56;;;22.52;44.02
19811;BME280;10065;49.632;8.346;2023-08-30T15:42:48;99604.22;;;22.50;44.48
19811;BME280;10065;49.632;8.346;2023-08-30T15:45:17;99606.91;;;22.50;44.46
19811;BME280;10065;49.632;8.346;2023-08-30T15:47:47;99606.34;;;22.48;45.28
19811;BME280;10065;49.632;8.346;2023-08-30T15:50:25;99607.63;;;22.45;44.83
19811;BME280;10065;49.632;8.346;2023-08-30T15:52:55;99613.78;;;22.41;45.58
19811;BME280;10065;49.632;8.346;2023-08-30T15:55:30;99604.53;;;22.37;46.02
19811;BME280;10065;49.632;8.346;2023-08-30T15:58:14;99603.72;;;22.36;45.75
19811;BME280;10065;49.632;8.346;2023-08-30T16:00:56;99606.66;;;22.35;46.16
19811;BME280;10065;49.632;8.346;2023-08-30T16:04:28;99608.28;;;22.36;45.89
19811;BME280;10065;49.632;8.346;2023-08-30T16:06:54;99609.84;;;22.32;46.30
19811;BME280;10065;49.632;8.346;2023-08-30T16:09:32;99611.41;;;22.28;46.11
19811;BME280;10065;49.632;8.346;2023-08-30T16:12:03;99604.34;;;22.27;46.36
19811;BME280;10065;49.632;8.346;2023-08-30T16:14:32;99609.22;;;22.25;46.61
19811;BME280;10065;49.632;8.346;2023-08-30T16:17:06;99604.06;;;22.23;46.73
19811;BME280;10065;49.632;8.346;2023-08-30T16:19:35;99609.94;;;22.20;46.55
19811;BME280;10065;49.632;8.346;2023-08-30T16:22:10;99615.25;;;22.15;47.01
19811;BME280;10065;49.632;8.346;2023-08-30T16:24:42;99611.63;;;22.09;47.07
19811;BME280;10065;49.632;8.346;2023-08-30T16:27:13;99616.72;;;22.06;47.69
19811;BME280;10065;49.632;8.346;2023-08-30T16:29:47;99606.63;;;22.01;47.32
19811;BME280;10065;49.632;8.346;2023-08-30T16:32:19;99614.63;;;21.96;47.28
19811;BME280;10065;49.632;8.346;2023-08-30T16:34:49;99613.69;;;21.91;47.60
19811;BME280;10065;49.632;8.346;2023-08-30T16:37:17;99615.84;;;21.89;48.15
19811;BME280;10065;49.632;8.346;2023-08-30T16:39:46;99610.31;;;21.84;47.82
19811;BME280;10065;49.632;8.346;2023-08-30T16:42:14;99608.22;;;21.86;47.98
19811;BME280;10065;49.632;8.346;2023-08-30T16:44:44;99607.88;;;21.82;48.23
19811;BME280;10065;49.632;8.346;2023-08-30T16:47:19;99606.25;;;21.81;48.28
19811;BME280;10065;49.632;8.346;2023-08-30T16:49:51;99618.34;;;21.78;49.01
19811;BME280;10065;49.632;8.346;2023-08-30T16:52:22;99614.25;;;21.76;48.63
19811;BME280;10065;49.632;8.346;2023-08-30T16:54:51;99614.72;;;21.73;48.83
19811;BME280;10065;49.632;8.346;2023-08-30T16:57:25;99615.22;;;21.70;49.56
19811;BME280;10065;49.632;8.346;2023-08-30T16:59:58;99619.44;;;21.66;49.56
19811;BME280;10065;49.632;8.346;2023-08-30T17:02:29;99624.84;;;21.66;49.77
19811;BME280;10065;49.632;8.346;2023-08-30T17:05:05;99633.91;;;21.60;50.03
19811;BME280;10065;49.632;8.346;2023-08-30T17:07:36;99628.41;;;21.55;50.11
19811;BME280;10065;49.632;8.346;2023-08-30T17:10:16;99629.72;;;21.52;50.43
19811;BME280;10065;49.632;8.346;2023-08-30T17:12:51;99632.88;;;21.49;50.65
19811;BME280;10065;49.632;8.346;2023-08-30T17:15:29;99621.75;;;21.46;51.19
19811;BME280;10065;49.632;8.346;2023-08-30T17:18:00;99629.50;;;21.42;52.09
19811;BME280;10065;49.632;8.346;2023-08-30T17:20:33;99633.72;;;21.38;52.46
19811;BME280;10065;49.632;8.346;2023-08-30T17:23:05;99639.38;;;21.36;52.80
19811;BME280;10065;49.632;8.346;2023-08-30T17:25:37;99633.41;;;21.34;52.55
19811;BME280;10065;49.632;8.346;2023-08-30T17:28:09;99637.59;;;21.30;52.59
19811;BME280;10065;49.632;8.346;2023-08-30T17:30:38;99643.50;;;21.27;53.32
19811;BME280;10065;49.632;8.346;2023-08-30T17:33:10;99646.66;;;21.24;53.45
19811;BME280;10065;49.632;8.346;2023-08-30T17:35:52;99641.50;;;21.23;53.29
19811;BME280;10065;49.632;8.346;2023-08-30T17:38:23;99643.38;;;21.22;54.10
19811;BME280;10065;49.632;8.346;2023-08-30T17:41:22;99638.47;;;21.19;53.79
19811;BME280;10065;49.632;8.346;2023-08-30T17:43:57;99647.81;;;21.17;53.98
19811;BME280;10065;49.632;8.346;2023-08-30T17:46:26;99649.31;;;21.13;54.93
19811;BME280;10065;49.632;8.346;2023-08-30T17:48:59;99644.75;;;21.13;54.12
19811;BME280;10065;49.632;8.346;2023-08-30T17:51:29;99635.53;;;21.09;54.27
19811;BME280;10065;49.632;8.346;2023-08-30T17:53:58;99630.13;;;21.09;54.31
19811;BME280;10065;49.632;8.346;2023-08-30T17:56:29;99648.41;;;21.07;55.06
19811;BME280;10065;49.632;8.346;2023-08-30T17:58:58;99710.03;;;21.03;56.70
19811;BME280;10065;49.632;8.346;2023-08-30T18:01:29;99700.91;;;20.81;64.17
19811;BME280;10065;49.632;8.346;2023-08-30T18:04:00;99715.63;;;20.55;66.55
19811;BME280;10065;49.632;8.346;2023-08-30T18:06:33;99713.91;;;20.31;68.07
19811;BME280;10065;49.632;8.346;2023-08-30T18:09:03;99721.75;;;20.03;71.89
19811;BME280;10065;49.632;8.346;2023-08-30T18:11:38;99706.22;;;19.86;73.15
19811;BME280;10065;49.632;8.346;2023-08-30T18:14:12;99709.59;;;19.82;74.83
19811;BME280;10065;49.632;8.346;2023-08-30T18:16:49;99703.25;;;19.76;75.68
19811;BME280;10065;49.632;8.346;2023-08-30T18:19:27;99722.75;;;19.72;76.44
19811;BME280;10065;49.632;8.346;2023-08-30T18:22:00;99742.47;;;19.66;76.09
19811;BME280;10065;49.632;8.346;2023-08-30T18:24:32;99732.97;;;19.63;76.93
19811;BME280;10065;49.632;8.346;2023-08-30T18:27:08;99733.56;;;19.47;76.71
19811;BME280;10065;49.632;8.346;2023-08-30T18:29:47;99738.03;;;19.35;76.21
19811;BME280;10065;49.632;8.346;2023-08-30T18:32:19;99740.78;;;19.28;75.86
19811;BME280;10065;49.632;8.346;2023-08-30T18:34:52;99741.69;;;19.22;76.88
19811;BME280;10065;49.632;8.346;2023-08-30T18:37:23;99748.97;;;19.15;76.35
19811;BME280;10065;49.632;8.346;2023-08-30T18:39:52;99747.63;;;19.06;75.86
19811;BME280;10065;49.632;8.346;2023-08-30T18:42:29;99756.53;;;19.00;76.99
19811;BME280;10065;49.632;8.346;2023-08-30T18:45:07;99763.00;;;18.92;76.79
19811;BME280;10065;49.632;8.346;2023-08-30T18:48:22;99770.91;;;18.87;76.52
19811;BME280;10065;49.632;8.346;2023-08-30T18:51:01;99783.75;;;18.85;76.92
19811;BME280;10065;49.632;8.346;2023-08-30T18:53:54;99783.59;;;18.80;78.23
19811;BME280;10065;49.632;8.346;2023-08-30T18:56:51;99800.66;;;18.61;81.27
19811;BME280;10065;49.632;8.346;2023-08-30T18:59:46;99801.91;;;18.52;81.82
19811;BME280;10065;49.632;8.346;2023-08-30T19:03:07;99804.69;;;18.32;80.64
19811;BME280;10065;49.632;8.346;2023-08-30T19:06:24;99811.28;;;18.36;80.11
19811;BME280;10065;49.632;8.346;2023-08-30T19:09:33;99820.75;;;18.38;80.58
19811;BME280;10065;49.632;8.346;2023-08-30T19:12:08;99821.63;;;18.32;82.17
19811;BME280;10065;49.632;8.346;2023-08-30T19:18:52;99815.84;;;18.35;80.34
19811;BME280;10065;49.632;8.346;2023-08-30T19:26:02;99830.13;;;18.29;81.05
19811;BME280;10065;49.632;8.346;2023-08-30T19:28:43;99831.75;;;18.30;80.68
19811;BME280;10065;49.632;8.346;2023-08-30T19:35:14;99820.59;;;18.33;80.16
19811;BME280;10065;49.632;8.346;2023-08-30T19:38:28;99821.41;;;18.34;79.21
19811;BME280;10065;49.632;8.346;2023-08-30T19:41:24;99821.00;;;18.30;79.31
19811;BME280;10065;49.632;8.346;2023-08-30T19:44:27;99823.34;;;18.20;79.34
19811;BME280;10065;49.632;8.346;2023-08-30T19:47:04;99814.69;;;18.18;80.69
19811;BME280;10065;49.632;8.346;2023-08-30T19:50:06;99811.38;;;18.16;80.66
19811;BME280;10065;49.632;8.346;2023-08-30T19:52:52;99828.75;;;18.07;81.79
19811;BME280;10065;49.632;8.346;2023-08-30T19:55:26;99831.03;;;18.10;81.86
19811;BME280;10065;49.632;8.346;2023-08-30T19:57:57;99839.25;;;18.15;81.74
19811;BME280;10065;49.632;8.346;2023-08-30T20:00:30;99839.44;;;18.14;81.79
19811;BME280;10065;49.632;8.346;2023-08-30T20:03:11;99850.19;;;18.20;80.11
19811;BME280;10065;49.632;8.346;2023-08-30T20:06:07;99856.75;;;18.24;80.26
19811;BME280;10065;49.632;8.346;2023-08-30T20:11:52;99853.81;;;18.32;79.42
19811;BME280;10065;49.632;8.346;2023-08-30T20:14:27;99851.16;;;18.32;80.76
19811;BME280;10065;49.632;8.346;2023-08-30T20:17:26;99855.91;;;18.30;81.40